Time;durP1;ratioP1;P1;durP2;ratioP2;P2;SDS_P1;SDS_P2;PMS_P1;PMS_P2;Temp;Humidity;BMP_temperature;BMP_pressure;BME280_temperature;BME280_humidity;BME280_pressure;Samples;Min_cycle;Max_cycle;Signal;HPM_P1;HPM_P2
2022/06/03 00:01:00;;;;;;;4.82;3.13;;;;;;;18.37;62.88;95127.13;5068643;28;20067;-73
2022/06/03 00:03:59;;;;;;;5.20;3.30;;;;;;;18.37;62.93;95121.88;5068105;28;20033;-73
2022/06/03 00:06:47;;;;;;;6.28;2.95;;;;;;;18.34;63.22;95124.84;5070411;28;20047;-73
2022/06/03 00:09:29;;;;;;;4.25;3.17;;;;;;;18.23;63.56;95121.56;5069370;28;20052;-74
2022/06/03 00:12:10;;;;;;;4.60;2.80;;;;;;;18.23;63.45;95123.38;5069377;28;20487;-73
2022/06/03 00:14:42;;;;;;;5.18;3.03;;;;;;;18.14;63.70;95114.69;5070899;28;20480;-73
2022/06/03 00:17:38;;;;;;;7.15;3.22;;;;;;;17.95;64.28;95120.28;5069548;28;20033;-73
2022/06/03 00:20:44;;;;;;;9.52;3.53;;;;;;;17.74;64.99;95121.53;5070857;28;20380;-73
2022/06/03 00:23:27;;;;;;;4.75;3.50;;;;;;;17.74;64.99;95115.47;5070593;28;20033;-74
2022/06/03 00:26:23;;;;;;;5.40;3.20;;;;;;;17.69;65.14;95121.25;5052690;28;20036;-73
2022/06/03 00:28:54;;;;;;;5.22;3.20;;;;;;;17.69;65.33;95126.50;5069717;28;20028;-73
2022/06/03 00:31:41;;;;;;;5.85;3.22;;;;;;;17.63;65.39;95117.47;5069711;28;20025;-74
2022/06/03 00:34:32;;;;;;;5.35;3.40;;;;;;;17.63;65.55;95116.59;5072281;28;20033;-74
2022/06/03 00:37:27;;;;;;;5.57;3.17;;;;;;;17.54;65.93;95117.59;5074245;28;20077;-73
2022/06/03 00:40:29;;;;;;;6.03;3.35;;;;;;;17.61;65.60;95114.16;5065580;28;20124;-73
2022/06/03 00:43:22;;;;;;;5.22;3.35;;;;;;;17.63;65.48;95121.88;5074461;28;20120;-73
2022/06/03 00:46:08;;;;;;;5.43;3.40;;;;;;;17.63;65.60;95119.25;5074260;28;20039;-73
2022/06/03 00:49:12;;;;;;;4.57;3.28;;;;;;;17.64;65.66;95111.22;5073855;28;20051;-74
2022/06/03 00:51:55;;;;;;;4.82;3.22;;;;;;;17.69;65.40;95121.25;5074364;28;20025;-74
2022/06/03 00:54:46;;;;;;;7.25;3.15;;;;;;;17.79;65.24;95116.66;5074271;28;20052;-74
2022/06/03 00:57:45;;;;;;;5.73;3.70;;;;;;;17.86;65.37;95119.47;5074130;28;20559;-73
2022/06/03 01:00:33;;;;;;;6.82;3.38;;;;;;;17.90;65.35;95120.75;5073944;28;20028;-73
2022/06/03 01:03:49;;;;;;;5.05;3.40;;;;;;;17.80;65.43;95118.31;5074097;28;20032;-73
2022/06/03 01:06:33;;;;;;;5.60;3.40;;;;;;;17.76;65.71;95110.88;5056020;28;20063;-73
2022/06/03 01:09:08;;;;;;;5.10;3.45;;;;;;;17.75;65.56;95104.81;5073946;28;20115;-73
2022/06/03 01:12:00;;;;;;;5.40;3.50;;;;;;;17.79;65.39;95111.41;5073920;28;20068;-74
2022/06/03 01:14:41;;;;;;;4.95;3.25;;;;;;;17.75;65.35;95091.69;5072736;28;20082;-74
2022/06/03 01:17:33;;;;;;;4.55;3.05;;;;;;;17.72;65.59;95099.88;5072553;28;20604;-73
2022/06/03 01:20:33;;;;;;;5.78;3.10;;;;;;;17.68;65.56;95098.56;5072700;28;20031;-73
2022/06/03 01:23:26;;;;;;;6.25;3.30;;;;;;;17.69;65.62;95100.22;5072725;28;20048;-73
2022/06/03 01:26:13;;;;;;;6.82;3.45;;;;;;;17.70;65.91;95096.59;5074038;28;20428;-73
2022/06/03 01:28:44;;;;;;;6.93;3.33;;;;;;;17.72;65.94;95102.53;5073171;28;20032;-73
2022/06/03 01:31:48;;;;;;;5.93;3.75;;;;;;;17.66;66.81;95100.53;5072213;28;20045;-74
2022/06/03 01:49:51;;;;;;;5.68;3.33;;;;;;;18.03;65.94;95112.41;5108523;27;20388;-70
2022/06/03 01:52:29;;;;;;;5.57;3.50;;;;;;;17.79;66.54;95110.59;5094706;28;20625;-70
2022/06/03 01:55:25;;;;;;;7.55;3.90;;;;;;;17.66;66.84;95113.66;5088460;28;20032;-70
2022/06/03 01:58:12;;;;;;;4.88;3.72;;;;;;;17.53;67.26;95114.16;5088185;28;20032;-70
2022/06/03 02:00:48;;;;;;;5.15;3.60;;;;;;;17.43;67.41;95110.84;5086706;28;20032;-70
2022/06/03 02:03:23;;;;;;;4.70;3.15;;;;;;;17.35;67.70;95118.72;5088384;28;20098;-70
2022/06/03 02:06:19;;;;;;;7.88;3.40;;;;;;;17.32;67.72;95111.97;5085697;28;20036;-70
2022/06/03 02:08:54;;;;;;;8.07;4.07;;;;;;;17.33;67.92;95121.50;5067830;28;20044;-70
2022/06/03 02:12:07;;;;;;;4.60;3.63;;;;;;;17.20;68.47;95116.72;5078009;28;20031;-70
2022/06/03 02:15:16;;;;;;;4.75;3.60;;;;;;;17.10;68.99;95120.44;5075342;28;20032;-70
2022/06/03 02:18:19;;;;;;;6.03;3.80;;;;;;;17.02;69.04;95123.88;5078937;28;20052;-70
2022/06/03 02:21:12;;;;;;;5.38;3.40;;;;;;;17.01;69.14;95129.28;5084216;28;20028;-70
2022/06/03 02:24:07;;;;;;;8.23;3.60;;;;;;;16.95;69.41;95123.69;5077455;28;20048;-70
2022/06/03 02:26:35;;;;;;;3.83;3.40;;;;;;;17.01;69.13;95121.41;5075114;28;20060;-70
2022/06/03 02:32:25;;;;;;;5.40;3.53;;;;;;;17.05;68.88;95125.34;5067512;28;20520;-70
2022/06/03 02:35:09;;;;;;;6.85;3.58;;;;;;;17.05;69.35;95125.34;5067148;28;20082;-70
2022/06/03 02:37:46;;;;;;;4.88;3.47;;;;;;;16.90;69.40;95123.34;5067022;28;20041;-70
2022/06/03 02:40:23;;;;;;;5.05;3.85;;;;;;;16.91;69.51;95127.63;5050238;28;20406;-70
2022/06/03 02:43:26;;;;;;;5.15;3.80;;;;;;;16.94;69.38;95129.09;5065612;28;20094;-70
2022/06/03 02:46:28;;;;;;;5.47;3.65;;;;;;;16.83;70.00;95132.03;5066934;28;20103;-71
2022/06/03 02:49:16;;;;;;;3.97;3.38;;;;;;;16.83;69.99;95135.47;5060316;28;20564;-69
2022/06/03 02:51:57;;;;;;;6.55;3.72;;;;;;;16.83;70.04;95130.22;5043166;28;20065;-70
2022/06/03 02:54:46;;;;;;;7.40;3.90;;;;;;;16.86;69.89;95135.13;5052271;28;20441;-71
2022/06/03 02:57:15;;;;;;;4.10;3.50;;;;;;;16.79;70.29;95138.53;5052175;28;20040;-70
2022/06/03 02:59:51;;;;;;;5.03;3.60;;;;;;;16.81;70.24;95142.66;5056623;28;20033;-70
2022/06/03 03:02:41;;;;;;;5.13;3.65;;;;;;;16.81;70.02;95134.78;5052313;28;20064;-70
2022/06/03 03:05:48;;;;;;;4.72;3.45;;;;;;;16.83;70.42;95129.41;5052174;28;20025;-70
2022/06/03 03:08:51;;;;;;;5.70;3.90;;;;;;;16.83;70.48;95134.63;5033813;28;20053;-70
2022/06/03 03:11:41;;;;;;;4.70;3.30;;;;;;;16.88;70.60;95141.06;5053105;28;20495;-70
2022/06/03 03:14:36;;;;;;;6.88;3.97;;;;;;;16.84;70.72;95121.34;5053175;28;20032;-70
2022/06/03 03:17:32;;;;;;;6.55;3.83;;;;;;;16.88;70.91;95138.44;5036008;28;20101;-70
2022/06/03 03:20:16;;;;;;;5.07;3.65;;;;;;;16.98;70.74;95133.88;5053089;28;20029;-70
2022/06/03 03:22:53;;;;;;;4.35;3.75;;;;;;;17.05;70.72;95130.59;5070451;28;20115;-70
2022/06/03 03:25:24;;;;;;;5.38;3.72;;;;;;;17.14;70.32;95134.91;5072689;28;20074;-70
2022/06/03 03:28:27;;;;;;;5.00;3.70;;;;;;;17.21;70.08;95133.28;5071403;28;20032;-70
2022/06/03 03:30:58;;;;;;;6.70;3.83;;;;;;;17.30;69.89;95142.00;5073098;28;20032;-70
2022/06/03 03:33:54;;;;;;;5.28;3.80;;;;;;;17.43;69.46;95143.16;5072704;28;20070;-70
2022/06/03 03:36:41;;;;;;;6.97;4.88;;;;;;;17.57;69.04;95138.28;5071423;28;20067;-70
2022/06/03 03:39:31;;;;;;;6.22;4.05;;;;;;;17.69;68.49;95144.88;5073091;28;20067;-70
2022/06/03 03:42:34;;;;;;;4.03;3.60;;;;;;;17.80;68.12;95149.84;5072683;28;20048;-70
2022/06/03 03:45:19;;;;;;;4.90;3.53;;;;;;;17.86;68.87;95149.19;5072646;28;20077;-70
2022/06/03 03:48:03;;;;;;;7.30;3.75;;;;;;;17.95;67.44;95146.56;5071142;28;20064;-70
2022/06/03 03:50:41;;;;;;;5.57;3.50;;;;;;;18.07;67.28;95150.50;5072531;28;20052;-70
2022/06/03 03:53:29;;;;;;;5.63;3.70;;;;;;;18.01;67.26;95156.41;5072779;28;20452;-70
2022/06/03 03:56:16;;;;;;;4.57;3.90;;;;;;;18.05;67.81;95162.97;5072380;28;20134;-70
2022/06/03 03:59:03;;;;;;;7.63;3.70;;;;;;;18.01;68.39;95166.94;5072196;28;20040;-70
2022/06/03 04:02:06;;;;;;;5.72;4.30;;;;;;;17.99;67.92;95164.44;5051224;28;20517;-70
2022/06/03 04:05:01;;;;;;;8.02;4.07;;;;;;;18.12;67.78;95165.78;5050983;28;20029;-70
2022/06/03 04:07:44;;;;;;;8.10;4.05;;;;;;;18.45;67.28;95170.03;5050837;28;20452;-70
2022/06/03 04:10:30;;;;;;;6.95;4.00;;;;;;;19.18;64.82;95161.09;5050799;28;20106;-70
2022/06/03 04:13:30;;;;;;;5.63;3.80;;;;;;;19.92;62.30;95170.41;5050814;28;20433;-71
2022/06/03 04:16:23;;;;;;;6.72;3.75;;;;;;;20.59;59.48;95175.00;5052014;28;20033;-70
2022/06/03 04:18:51;;;;;;;8.38;3.97;;;;;;;21.17;57.36;95165.44;5050256;28;20041;-70
2022/06/03 04:21:41;;;;;;;5.32;3.60;;;;;;;21.79;55.60;95162.34;5051490;28;20532;-71
2022/06/03 04:24:36;;;;;;;6.80;3.53;;;;;;;22.48;53.41;95166.22;5051930;28;20075;-71
2022/06/03 04:27:20;;;;;;;6.38;3.25;;;;;;;22.98;52.34;95174.94;5051908;28;20041;-71
2022/06/03 04:30:17;;;;;;;7.07;3.72;;;;;;;23.69;50.83;95176.50;5051699;28;20025;-71
2022/06/03 04:33:04;;;;;;;9.13;3.92;;;;;;;24.13;48.56;95185.81;5052206;28;20041;-71
2022/06/03 04:36:05;;;;;;;5.53;3.55;;;;;;;24.61;47.29;95196.28;5051617;28;20024;-71
2022/06/03 04:39:07;;;;;;;5.70;3.15;;;;;;;24.84;47.03;95196.66;5012312;28;20134;-71
2022/06/03 04:42:01;;;;;;;5.65;3.28;;;;;;;25.09;45.78;95201.31;5071244;28;20021;-71
2022/06/03 04:44:32;;;;;;;9.70;3.83;;;;;;;25.09;46.12;95188.84;5071384;28;20024;-72
2022/06/03 04:47:17;;;;;;;8.00;3.72;;;;;;;24.60;47.00;95197.28;5071214;28;20040;-71
2022/06/03 04:49:57;;;;;;;8.95;3.85;;;;;;;23.96;48.84;95196.81;5069194;28;20493;-71
2022/06/03 04:52:40;;;;;;;10.65;4.03;;;;;;;24.17;48.62;95200.31;5071457;28;20093;-71
2022/06/03 04:55:18;;;;;;;6.22;3.60;;;;;;;24.06;49.26;95207.81;5071044;28;20102;-71
2022/06/03 04:58:20;;;;;;;11.55;3.97;;;;;;;23.90;49.23;95205.53;5069811;28;20071;-70
2022/06/03 05:01:04;;;;;;;8.25;3.88;;;;;;;23.81;49.66;95204.09;5071050;28;20055;-71
2022/06/03 05:04:11;;;;;;;6.25;3.97;;;;;;;23.78;50.24;95209.78;5070054;28;20131;-70
2022/06/03 05:06:58;;;;;;;5.75;4.25;;;;;;;23.68;50.17;95210.16;5055608;28;20059;-70
2022/06/03 05:09:45;;;;;;;6.97;4.10;;;;;;;23.67;50.69;95220.94;5070754;28;20029;-70
2022/06/03 05:12:48;;;;;;;6.15;3.80;;;;;;;23.69;50.55;95216.28;5070890;28;20029;-70
2022/06/03 05:15:41;;;;;;;9.73;4.18;;;;;;;23.67;50.66;95213.00;5070405;28;20036;-70
2022/06/03 05:18:11;;;;;;;7.80;4.10;;;;;;;23.64;50.97;95216.84;5068252;28;20036;-70
2022/06/03 05:21:22;;;;;;;11.98;4.60;;;;;;;23.51;51.36;95220.25;5058029;28;20504;-71
2022/06/03 05:23:50;;;;;;;11.55;4.43;;;;;;;23.39;51.51;95224.50;5069508;28;20484;-71
2022/06/03 05:26:43;;;;;;;8.80;4.07;;;;;;;23.32;52.67;95218.38;5068492;28;20028;-71
2022/06/03 05:29:11;;;;;;;11.23;4.70;;;;;;;23.52;52.08;95218.44;5069980;28;20052;-71
2022/06/03 05:32:22;;;;;;;10.55;4.45;;;;;;;23.48;52.25;95220.66;5069482;28;20037;-70
2022/06/03 05:35:02;;;;;;;;;;;;;;;23.49;52.27;95217.00;5060653;28;20524;-70
2022/06/03 05:37:27;;;;;;;8.40;3.83;;;;;;;23.57;52.11;95222.16;5065441;28;19929;-71
2022/06/03 05:40:11;;;;;;;6.35;3.65;;;;;;;23.70;52.21;95221.34;5063404;28;20028;-70
2022/06/03 05:43:10;;;;;;;5.55;3.25;;;;;;;23.82;52.03;95221.63;5067857;28;20039;-70
2022/06/03 05:46:13;;;;;;;7.20;4.20;;;;;;;23.98;52.22;95223.94;5068082;28;20021;-74
2022/06/03 05:48:48;;;;;;;6.60;3.58;;;;;;;24.13;51.85;95217.66;5048361;28;20056;-73
2022/06/03 05:51:25;;;;;;;6.85;3.30;;;;;;;24.23;51.47;95216.22;5063195;28;20620;-71
2022/06/03 05:53:54;;;;;;;6.63;3.30;;;;;;;24.34;51.31;95214.00;5068553;28;20045;-71
2022/06/03 05:56:41;;;;;;;6.53;3.38;;;;;;;24.35;50.21;95218.28;5069584;28;20406;-71
2022/06/03 05:59:36;;;;;;;4.10;3.33;;;;;;;24.38;50.68;95217.91;5069232;28;20031;-71
2022/06/03 06:02:44;;;;;;;6.50;4.00;;;;;;;24.35;50.27;95207.66;5060916;28;20517;-71
2022/06/03 06:05:46;;;;;;;5.60;3.63;;;;;;;24.44;50.39;95212.63;5061360;28;20072;-71
2022/06/03 06:08:28;;;;;;;7.57;3.92;;;;;;;24.45;50.23;95198.31;5060005;28;20037;-71
2022/06/03 06:11:16;;;;;;;7.82;3.90;;;;;;;24.62;50.03;95190.75;5066128;28;20470;-71
2022/06/03 06:13:56;;;;;;;8.00;4.22;;;;;;;24.70;50.98;95190.53;5043506;28;20091;-71
2022/06/03 06:16:28;;;;;;;11.88;4.20;;;;;;;24.81;50.56;95183.78;5067935;28;20051;-71
2022/06/03 06:18:56;;;;;;;9.27;4.38;;;;;;;24.78;49.96;95184.22;5068986;28;20028;-71
2022/06/03 06:21:46;;;;;;;5.70;4.10;;;;;;;24.81;50.72;95188.28;5065309;28;20575;-71
2022/06/03 06:24:27;;;;;;;7.70;4.50;;;;;;;24.85;49.92;95184.19;5067586;28;20045;-71
2022/06/03 06:27:19;;;;;;;6.65;3.70;;;;;;;24.91;50.26;95181.53;5052842;28;20045;-71
2022/06/03 06:30:00;;;;;;;7.00;4.80;;;;;;;25.01;49.93;95182.94;5064743;28;20041;-71
2022/06/03 06:32:48;;;;;;;7.65;4.82;;;;;;;24.97;49.96;95180.69;5069541;28;20472;-71
2022/06/03 06:35:41;;;;;;;9.65;4.35;;;;;;;24.99;50.42;95183.16;5070479;28;20079;-71
2022/06/03 06:38:12;;;;;;;7.85;4.55;;;;;;;25.08;50.35;95184.56;5072025;28;20041;-71
2022/06/03 06:40:51;;;;;;;11.32;4.97;;;;;;;25.13;50.10;95181.25;5071099;28;20052;-71
2022/06/03 06:43:37;;;;;;;10.83;5.67;;;;;;;25.30;49.83;95187.81;5070672;28;20421;-71
2022/06/03 06:46:17;;;;;;;9.82;5.15;;;;;;;25.45;49.94;95178.75;5054001;28;20127;-71
2022/06/03 06:49:02;;;;;;;12.85;5.00;;;;;;;25.57;49.52;95169.09;5071606;28;20064;-71
2022/06/03 06:51:49;;;;;;;10.65;5.97;;;;;;;25.66;48.92;95173.16;5055818;28;20604;-71
2022/06/03 06:54:38;;;;;;;11.05;5.43;;;;;;;25.77;48.89;95175.13;5072310;28;20027;-71
2022/06/03 06:57:07;;;;;;;7.80;5.07;;;;;;;25.83;49.37;95166.34;5072149;28;20044;-71
2022/06/03 06:59:35;;;;;;;8.98;4.82;;;;;;;25.94;49.15;95172.00;5039274;28;20090;-72
2022/06/03 07:02:12;;;;;;;9.70;5.05;;;;;;;26.09;48.25;95164.53;5073747;28;20040;-71
2022/06/03 07:04:41;;;;;;;9.68;5.45;;;;;;;25.93;48.69;95173.84;5072254;28;20024;-71
2022/06/03 07:07:06;;;;;;;8.65;4.82;;;;;;;26.05;48.54;95176.66;5039102;28;20089;-71
2022/06/03 07:09:38;;;;;;;8.38;4.80;;;;;;;26.21;47.04;95170.78;5073378;28;20444;-71
2022/06/03 07:12:18;;;;;;;9.75;4.53;;;;;;;26.20;46.95;95163.84;5073359;28;20044;-71
2022/06/03 07:15:01;;;;;;;8.57;3.90;;;;;;;26.39;46.01;95180.72;5055559;28;20021;-71
2022/06/03 07:20:39;;;;;;;8.30;4.70;;;;;;;26.62;46.33;95174.81;5072378;28;20031;-71
2022/06/03 07:23:11;;;;;;;8.15;5.05;;;;;;;26.68;46.03;95168.59;5071863;28;20094;-71
2022/06/03 07:25:47;;;;;;;5.78;4.30;;;;;;;26.87;46.21;95165.97;5055750;28;20028;-71
2022/06/03 07:28:34;;;;;;;6.32;4.00;;;;;;;27.02;45.31;95166.44;5055357;28;20174;-71
2022/06/03 07:31:22;;;;;;;6.13;3.53;;;;;;;27.19;44.83;95169.34;5072924;28;20028;-71
2022/06/03 07:33:59;;;;;;;8.60;3.90;;;;;;;27.32;44.90;95166.56;5073140;28;20044;-71
2022/06/03 07:36:43;;;;;;;8.00;4.18;;;;;;;27.50;44.41;95173.75;5055474;28;20059;-71
2022/06/03 07:39:36;;;;;;;7.93;4.43;;;;;;;27.36;42.40;95167.75;5072810;28;20039;-71
2022/06/03 07:42:13;;;;;;;6.68;4.30;;;;;;;27.32;43.57;95171.88;5071725;28;20504;-71
2022/06/03 07:45:00;;;;;;;10.38;4.15;;;;;;;27.25;45.08;95175.69;5071480;28;20028;-71
2022/06/03 07:47:25;;;;;;;6.95;3.67;;;;;;;27.37;44.27;95173.88;5054462;28;20060;-71
2022/06/03 07:50:01;;;;;;;11.82;4.18;;;;;;;27.49;42.72;95171.28;5037983;28;20036;-71
2022/06/03 07:52:54;;;;;;;7.28;4.15;;;;;;;27.49;42.18;95173.94;5054776;28;20138;-71
2022/06/03 07:55:24;;;;;;;6.78;3.83;;;;;;;27.54;42.27;95176.78;5070189;28;20097;-71
2022/06/03 08:12:44;;;;;;;8.48;4.18;;;;;;;28.47;41.36;95176.34;5105708;27;1349710;-71
2022/06/03 08:15:14;;;;;;;9.32;3.92;;;;;;;28.49;41.45;95184.94;5128374;27;20027;-72
2022/06/03 08:17:41;;;;;;;6.93;3.88;;;;;;;28.51;41.18;95182.84;5107170;28;20432;-71
2022/06/03 08:20:06;;;;;;;7.25;3.85;;;;;;;28.45;40.31;95193.66;5108393;28;20028;-71
2022/06/03 08:22:32;;;;;;;9.40;4.05;;;;;;;28.30;41.08;95186.03;5107146;28;20044;-72
2022/06/03 08:24:57;;;;;;;11.20;3.80;;;;;;;28.28;41.54;95194.28;5107150;28;20024;-71
2022/06/03 08:27:30;;;;;;;7.18;4.03;;;;;;;28.25;42.35;95192.06;5106998;28;20032;-71
2022/06/03 08:30:07;;;;;;;11.05;4.50;;;;;;;28.04;42.20;95185.38;5090836;28;20031;-71
2022/06/03 08:32:59;;;;;;;10.55;4.13;;;;;;;28.04;42.70;95188.03;5090308;28;20044;-72
2022/06/03 08:35:27;;;;;;;11.32;4.07;;;;;;;28.01;43.64;95201.03;5107043;28;20046;-71
2022/06/03 08:37:54;;;;;;;7.72;4.20;;;;;;;27.62;43.84;95197.81;5106869;28;20031;-72
2022/06/03 08:40:28;;;;;;;5.38;4.00;;;;;;;27.44;43.22;95198.63;5107942;28;20476;-71
2022/06/03 08:43:15;;;;;;;5.32;3.53;;;;;;;27.43;42.75;95209.53;5105876;28;20028;-72
2022/06/03 08:45:49;;;;;;;8.57;3.95;;;;;;;27.41;42.79;95193.72;5099756;28;20042;-72
2022/06/03 08:48:16;;;;;;;9.70;4.20;;;;;;;27.43;43.13;95180.19;5071241;28;20041;-74
2022/06/03 08:50:52;;;;;;;8.52;4.25;;;;;;;27.55;42.33;95195.22;5089862;28;20462;-71
2022/06/03 08:53:20;;;;;;;5.97;4.00;;;;;;;27.62;42.79;95206.63;5110364;28;20043;-71
2022/06/03 08:56:03;;;;;;;6.13;4.38;;;;;;;27.62;42.47;95206.63;5114884;27;20123;-71
2022/06/03 08:58:54;;;;;;;10.63;4.30;;;;;;;27.48;43.21;95207.81;5109765;28;20057;-71
2022/06/03 09:01:34;;;;;;;7.93;4.20;;;;;;;27.51;42.75;95204.69;5100674;28;20034;-71
2022/06/03 09:04:21;;;;;;;6.60;4.40;;;;;;;27.53;42.95;95205.31;5096478;28;20020;-71
2022/06/03 09:07:00;;;;;;;8.05;3.92;;;;;;;27.41;42.89;95207.06;5117004;28;20027;-72
2022/06/03 09:09:26;;;;;;;5.18;3.75;;;;;;;27.27;44.92;95200.25;5100414;28;20150;-71
2022/06/03 09:12:03;;;;;;;8.00;4.38;;;;;;;27.30;44.55;95205.97;5108315;27;20119;-71
2022/06/03 09:14:29;;;;;;;8.50;4.22;;;;;;;27.30;44.61;95213.13;5070011;28;20391;-71
2022/06/03 09:16:57;;;;;;;6.95;4.10;;;;;;;27.32;43.74;95203.88;5090132;28;20027;-71
2022/06/03 09:19:41;;;;;;;5.63;3.60;;;;;;;27.43;42.11;95210.34;5075855;28;20035;-71
2022/06/03 09:22:12;;;;;;;7.70;3.75;;;;;;;27.46;42.31;95207.22;5092567;28;20481;-71
2022/06/03 09:24:40;;;;;;;7.70;3.90;;;;;;;27.57;42.18;95208.34;5059361;28;20036;-72
2022/06/03 09:27:06;;;;;;;6.18;3.35;;;;;;;27.73;41.90;95206.91;5069124;28;20031;-72
2022/06/03 09:29:32;;;;;;;5.43;3.20;;;;;;;27.89;40.89;95213.50;5073771;28;20063;-72
2022/06/03 09:31:59;;;;;;;8.93;3.47;;;;;;;27.99;40.43;95201.25;5090868;28;20031;-72
2022/06/03 09:34:57;;;;;;;5.38;3.72;;;;;;;27.92;40.59;95202.41;5089958;28;20059;-72
2022/06/03 09:37:26;;;;;;;5.25;3.33;;;;;;;27.85;40.46;95208.63;5070537;28;20512;-72
2022/06/03 09:39:52;;;;;;;5.30;3.35;;;;;;;27.75;40.74;95208.31;5056258;28;20040;-71
2022/06/03 09:42:19;;;;;;;7.13;3.70;;;;;;;27.87;41.22;95202.25;5074051;28;20047;-72
2022/06/03 09:44:44;;;;;;;5.30;3.10;;;;;;;27.96;42.01;95191.03;5089775;28;20032;-71
2022/06/03 09:47:10;;;;;;;4.45;3.22;;;;;;;28.03;40.97;95186.41;5091302;28;20020;-71
2022/06/03 09:49:35;;;;;;;4.57;3.50;;;;;;;28.06;40.24;95185.97;5057498;28;20031;-71
2022/06/03 09:52:02;;;;;;;6.63;3.22;;;;;;;28.20;40.07;95186.59;5089849;28;20036;-71
2022/06/03 09:54:30;;;;;;;5.65;3.55;;;;;;;28.38;39.18;95188.38;5073407;28;20206;-71
2022/06/03 09:57:21;;;;;;;7.35;3.65;;;;;;;28.57;42.58;95193.66;5072981;28;20023;-71
2022/06/03 10:00:10;;;;;;;8.18;3.72;;;;;;;28.68;40.75;95195.53;5078476;28;20051;-72
2022/06/03 10:02:35;;;;;;;6.90;3.53;;;;;;;28.66;40.24;95195.75;5088338;28;20039;-71
2022/06/03 10:05:01;;;;;;;4.15;3.63;;;;;;;28.59;40.56;95204.94;5072349;28;20445;-71
2022/06/03 10:07:27;;;;;;;7.75;3.50;;;;;;;28.52;40.17;95195.16;5070892;28;20036;-71
2022/06/03 10:12:49;;;;;;;6.72;3.47;;;;;;;28.37;40.38;95185.94;5085716;28;20184;-72
2022/06/03 10:15:37;;;;;;;8.40;3.80;;;;;;;28.30;40.51;95191.38;5062853;28;20029;-71
2022/06/03 10:18:30;;;;;;;4.72;3.35;;;;;;;28.37;40.90;95199.28;5088680;28;20040;-71
2022/06/03 10:21:19;;;;;;;7.03;4.03;;;;;;;28.40;40.55;95190.81;5079143;28;20105;-71
2022/06/03 10:23:51;;;;;;;8.30;4.20;;;;;;;28.39;40.16;95203.38;5072809;28;20089;-71
2022/06/03 10:27:01;;;;;;;5.88;3.60;;;;;;;28.43;40.11;95199.22;5090895;28;20036;-71
2022/06/03 10:29:27;;;;;;;10.85;3.85;;;;;;;28.55;39.87;95196.56;5089404;28;20077;-71
2022/06/03 10:32:00;;;;;;;7.25;3.20;;;;;;;28.62;39.64;95197.28;5089790;28;20028;-72
2022/06/03 10:34:27;;;;;;;10.20;3.75;;;;;;;28.45;39.79;95191.78;5069898;28;20020;-72
2022/06/03 10:36:54;;;;;;;7.05;3.35;;;;;;;28.54;39.10;95186.13;5071773;28;20123;-72
2022/06/03 10:39:21;;;;;;;5.60;3.47;;;;;;;28.48;38.91;95195.88;5089850;28;20036;-72
2022/06/03 10:41:49;;;;;;;6.38;3.55;;;;;;;28.44;39.07;95198.16;5088439;28;20667;-71
2022/06/03 10:44:16;;;;;;;6.45;3.40;;;;;;;28.34;39.26;95187.22;5071248;28;20024;-71
2022/06/03 10:47:02;;;;;;;6.55;3.20;;;;;;;28.31;39.95;95184.19;5087441;28;20030;-72
2022/06/03 10:49:31;;;;;;;7.35;3.75;;;;;;;28.29;39.54;95181.72;5090077;28;20063;-71
2022/06/03 11:02:58;;;;;;;5.70;3.50;;;;;;;28.49;40.04;95176.09;5089978;28;20038;-71
2022/06/03 11:05:25;;;;;;;6.70;3.67;;;;;;;28.56;39.60;95168.00;5087088;28;20036;-71
2022/06/03 11:31:30;;;;;;;7.03;3.55;;;;;;;28.88;38.29;95145.22;5094619;27;20394;-71
2022/06/03 11:34:08;;;;;;;6.85;3.85;;;;;;;28.92;38.72;95145.59;5045476;28;20050;-71
2022/06/03 11:36:45;;;;;;;5.57;3.42;;;;;;;29.02;37.84;95147.66;5072694;28;20028;-71
2022/06/03 11:39:37;;;;;;;4.07;3.10;;;;;;;29.08;37.36;95138.72;5076025;28;20504;-71
2022/06/03 11:42:10;;;;;;;6.10;3.30;;;;;;;29.12;37.40;95129.19;5065096;28;20025;-71
2022/06/03 11:44:39;;;;;;;9.77;4.15;;;;;;;29.15;37.15;95129.53;5048692;28;20033;-71
2022/06/03 11:47:17;;;;;;;7.05;3.70;;;;;;;29.11;36.51;95123.03;5047601;28;20463;-71
2022/06/03 11:49:43;;;;;;;6.65;3.50;;;;;;;29.18;36.75;95120.22;5049784;28;20406;-71
2022/06/03 11:52:08;;;;;;;7.18;3.65;;;;;;;29.20;36.54;95122.66;5065280;28;20032;-71
2022/06/03 11:54:34;;;;;;;7.75;3.42;;;;;;;29.14;35.77;95117.22;5044171;28;20040;-71
2022/06/03 11:57:00;;;;;;;8.23;3.50;;;;;;;29.05;37.39;95113.25;5063852;28;20391;-70
2022/06/03 11:59:30;;;;;;;6.00;3.55;;;;;;;29.04;38.36;95110.84;5064696;28;20028;-70
2022/06/03 12:02:02;;;;;;;;;;;;;;;29.02;35.56;95104.88;5065961;28;20043;-71
2022/06/03 12:04:31;;;;;;;6.20;3.15;;;;;;;29.01;34.93;95105.94;5062906;28;20401;-71
2022/06/03 12:07:21;;;;;;;4.00;3.08;;;;;;;29.02;36.03;95099.53;5066039;28;20033;-71
2022/06/03 12:10:00;;;;;;;4.72;3.50;;;;;;;29.07;37.03;95102.34;5064259;28;20043;-70
2022/06/03 12:15:24;;;;;;;;;;;;;;;29.11;36.53;95106.16;5064882;28;20112;-70
2022/06/03 12:17:50;;;;;;;4.88;3.30;;;;;;;29.06;37.25;95103.38;5065724;28;20467;-70
2022/06/03 12:20:41;;;;;;;4.72;3.30;;;;;;;28.99;36.83;95108.81;5066128;28;20028;-70
2022/06/03 12:23:12;;;;;;;5.75;3.50;;;;;;;28.94;37.09;95117.53;5062903;28;20068;-71
2022/06/03 12:25:43;;;;;;;5.38;3.55;;;;;;;28.87;36.67;95110.72;5063189;28;20095;-70
2022/06/03 12:28:24;;;;;;;4.90;3.35;;;;;;;28.77;37.22;95116.63;5064638;28;20032;-71
2022/06/03 12:30:52;;;;;;;5.88;3.50;;;;;;;28.63;37.69;95110.72;5061426;28;20041;-71
2022/06/03 12:33:31;;;;;;;4.47;2.97;;;;;;;28.58;38.73;95118.59;5034044;28;20029;-70
2022/06/03 12:36:05;;;;;;;6.80;3.40;;;;;;;28.54;37.49;95116.66;5050183;28;20083;-71
2022/06/03 12:38:33;;;;;;;6.70;3.70;;;;;;;28.50;38.93;95117.13;5050847;28;20521;-71
2022/06/03 12:41:00;;;;;;;6.90;3.50;;;;;;;28.48;37.50;95113.84;5051605;28;20023;-72
2022/06/03 12:43:29;;;;;;;4.45;3.10;;;;;;;28.38;37.50;95116.25;5034122;28;20044;-71
2022/06/03 12:46:00;;;;;;;5.93;3.25;;;;;;;28.12;38.27;95114.81;5049825;28;20490;-71
2022/06/03 12:48:46;;;;;;;5.47;3.17;;;;;;;27.82;38.44;95101.50;5052083;28;20414;-71
2022/06/03 12:51:19;;;;;;;4.38;3.08;;;;;;;27.69;40.23;95102.47;5028613;28;20033;-71
2022/06/03 12:53:45;;;;;;;5.75;3.50;;;;;;;27.63;40.84;95095.38;5033804;28;20029;-71
2022/06/03 12:56:53;;;;;;;6.03;3.30;;;;;;;27.55;41.16;95093.84;5016883;28;20089;-71
2022/06/03 12:59:58;;;;;;;7.78;3.10;;;;;;;27.53;40.80;95089.78;5024503;28;20127;-71
2022/06/03 13:02:24;;;;;;;3.67;3.00;;;;;;;27.62;38.34;95094.56;5026025;28;20083;-71
2022/06/03 13:04:53;;;;;;;6.55;3.08;;;;;;;27.68;38.56;95100.03;5033058;28;20052;-71
2022/06/03 13:07:27;;;;;;;5.45;3.33;;;;;;;27.75;39.29;95098.06;5051363;28;20025;-71
2022/06/03 13:10:02;;;;;;;8.52;3.30;;;;;;;27.77;38.57;95104.00;5052093;28;20037;-71
2022/06/03 13:12:36;;;;;;;8.90;3.85;;;;;;;27.80;38.34;95111.59;5049984;28;20025;-71
2022/06/03 13:15:17;;;;;;;6.25;3.50;;;;;;;27.79;39.25;95113.44;5049640;28;20087;-71
2022/06/03 13:18:13;;;;;;;5.78;3.38;;;;;;;27.79;39.02;95109.94;5048071;28;20035;-71
2022/06/03 13:20:43;;;;;;;5.68;3.25;;;;;;;27.80;38.46;95116.94;5047040;28;20033;-71
2022/06/03 13:23:39;;;;;;;8.30;3.60;;;;;;;27.75;38.49;95120.25;5081761;28;20153;-71
2022/06/03 13:26:19;;;;;;;7.30;3.50;;;;;;;27.79;40.10;95124.13;5045820;28;20068;-71
2022/06/03 13:28:45;;;;;;;13.43;3.85;;;;;;;27.74;39.44;95118.63;5045638;28;20058;-72
2022/06/03 13:31:23;;;;;;;5.60;3.35;;;;;;;27.80;38.69;95114.25;5030781;28;20068;-72
2022/06/03 13:34:04;;;;;;;6.47;3.50;;;;;;;27.82;39.00;95117.53;5078404;28;20171;-72
2022/06/03 13:36:30;;;;;;;5.68;3.22;;;;;;;27.82;38.46;95110.31;5046689;28;20028;-72
2022/06/03 13:38:56;;;;;;;6.43;3.60;;;;;;;27.83;37.60;95105.78;5047944;28;20090;-72
2022/06/03 13:44:19;;;;;;;7.60;3.40;;;;;;;27.81;38.07;95094.56;5049228;28;20652;-72
2022/06/03 13:46:48;;;;;;;5.63;3.80;;;;;;;27.92;38.90;95100.97;5033209;28;20083;-72
2022/06/03 13:49:25;;;;;;;5.57;3.17;;;;;;;27.89;38.68;95088.91;5017410;28;20171;-72
2022/06/03 13:51:53;;;;;;;7.10;3.50;;;;;;;27.95;39.92;95093.31;5034030;28;20033;-72
2022/06/03 13:54:22;;;;;;;7.97;3.47;;;;;;;27.95;39.02;95095.97;5032337;28;20498;-72
2022/06/03 13:56:56;;;;;;;6.95;3.70;;;;;;;27.98;39.25;95094.72;5016063;28;20033;-72
2022/06/03 13:59:22;;;;;;;7.50;3.50;;;;;;;27.95;39.17;95085.31;5028783;28;20099;-79